sensor_id;sensor_type;location;lat;lon;timestamp;P1;durP1;ratioP1;P2;durP2;ratioP2
12665;SDS011;58531;59.050;17.416;2023-07-29T00:01:54;9.20;;;6.67;;
12665;SDS011;58531;59.050;17.416;2023-07-29T00:04:21;10.57;;;7.37;;
12665;SDS011;58531;59.050;17.416;2023-07-29T00:06:48;7.53;;;6.83;;
12665;SDS011;58531;59.050;17.416;2023-07-29T00:09:15;7.00;;;6.30;;
12665;SDS011;58531;59.050;17.416;2023-07-29T00:11:43;8.13;;;7.40;;
12665;SDS011;58531;59.050;17.416;2023-07-29T00:14:10;7.57;;;6.87;;
12665;SDS011;58531;59.050;17.416;2023-07-29T00:16:37;8.17;;;7.40;;
12665;SDS011;58531;59.050;17.416;2023-07-29T00:19:03;8.37;;;7.57;;
12665;SDS011;58531;59.050;17.416;2023-07-29T00:21:30;8.47;;;7.57;;
12665;SDS011;58531;59.050;17.416;2023-07-29T00:23:57;10.03;;;7.50;;
12665;SDS011;58531;59.050;17.416;2023-07-29T00:26:26;9.73;;;7.83;;
12665;SDS011;58531;59.050;17.416;2023-07-29T00:28:55;14.07;;;8.33;;
12665;SDS011;58531;59.050;17.416;2023-07-29T00:31:22;8.90;;;7.67;;
12665;SDS011;58531;59.050;17.416;2023-07-29T00:33:49;8.73;;;7.83;;
12665;SDS011;58531;59.050;17.416;2023-07-29T00:36:17;8.60;;;7.50;;
12665;SDS011;58531;59.050;17.416;2023-07-29T00:38:44;8.53;;;7.63;;
12665;SDS011;58531;59.050;17.416;2023-07-29T00:41:11;7.50;;;6.83;;
12665;SDS011;58531;59.050;17.416;2023-07-29T00:43:39;7.70;;;6.90;;
12665;SDS011;58531;59.050;17.416;2023-07-29T00:46:08;9.30;;;6.63;;
12665;SDS011;58531;59.050;17.416;2023-07-29T00:48:35;8.80;;;6.83;;
12665;SDS011;58531;59.050;17.416;2023-07-29T00:51:03;8.73;;;6.90;;
12665;SDS011;58531;59.050;17.416;2023-07-29T00:53:31;8.73;;;7.27;;
12665;SDS011;58531;59.050;17.416;2023-07-29T00:55:57;11.60;;;7.33;;
12665;SDS011;58531;59.050;17.416;2023-07-29T00:58:25;7.80;;;7.00;;
12665;SDS011;58531;59.050;17.416;2023-07-29T01:00:51;7.43;;;6.73;;
12665;SDS011;58531;59.050;17.416;2023-07-29T01:03:20;7.73;;;6.23;;
12665;SDS011;58531;59.050;17.416;2023-07-29T01:05:50;7.63;;;6.93;;
12665;SDS011;58531;59.050;17.416;2023-07-29T01:08:29;8.43;;;6.53;;
12665;SDS011;58531;59.050;17.416;2023-07-29T01:11:10;9.60;;;7.17;;
12665;SDS011;58531;59.050;17.416;2023-07-29T01:13:50;8.00;;;6.93;;
12665;SDS011;58531;59.050;17.416;2023-07-29T01:16:21;7.70;;;6.87;;
12665;SDS011;58531;59.050;17.416;2023-07-29T01:18:53;7.17;;;6.47;;
12665;SDS011;58531;59.050;17.416;2023-07-29T01:21:21;9.27;;;7.43;;
12665;SDS011;58531;59.050;17.416;2023-07-29T01:23:53;7.43;;;6.77;;
12665;SDS011;58531;59.050;17.416;2023-07-29T01:26:24;10.13;;;7.47;;
12665;SDS011;58531;59.050;17.416;2023-07-29T01:28:51;6.77;;;6.23;;
12665;SDS011;58531;59.050;17.416;2023-07-29T01:31:20;7.70;;;6.90;;
12665;SDS011;58531;59.050;17.416;2023-07-29T01:33:56;8.93;;;6.90;;
12665;SDS011;58531;59.050;17.416;2023-07-29T01:36:25;8.13;;;6.97;;
12665;SDS011;58531;59.050;17.416;2023-07-29T01:38:57;7.57;;;6.83;;
12665;SDS011;58531;59.050;17.416;2023-07-29T01:41:24;7.40;;;6.80;;
12665;SDS011;58531;59.050;17.416;2023-07-29T01:43:51;9.37;;;6.83;;
12665;SDS011;58531;59.050;17.416;2023-07-29T01:46:19;15.40;;;7.30;;
12665;SDS011;58531;59.050;17.416;2023-07-29T01:48:46;11.23;;;6.77;;
12665;SDS011;58531;59.050;17.416;2023-07-29T01:51:13;9.43;;;7.30;;
12665;SDS011;58531;59.050;17.416;2023-07-29T01:53:40;8.27;;;7.00;;
12665;SDS011;58531;59.050;17.416;2023-07-29T01:56:08;8.70;;;7.40;;
12665;SDS011;58531;59.050;17.416;2023-07-29T01:58:35;7.80;;;7.00;;
12665;SDS011;58531;59.050;17.416;2023-07-29T02:01:02;12.87;;;6.97;;
12665;SDS011;58531;59.050;17.416;2023-07-29T02:03:29;9.47;;;7.63;;
12665;SDS011;58531;59.050;17.416;2023-07-29T02:05:56;8.07;;;6.47;;
12665;SDS011;58531;59.050;17.416;2023-07-29T02:08:23;9.77;;;7.87;;
12665;SDS011;58531;59.050;17.416;2023-07-29T02:10:49;10.27;;;7.23;;
12665;SDS011;58531;59.050;17.416;2023-07-29T02:13:17;9.67;;;7.47;;
12665;SDS011;58531;59.050;17.416;2023-07-29T02:15:44;8.30;;;7.17;;
12665;SDS011;58531;59.050;17.416;2023-07-29T02:18:11;9.07;;;7.93;;
12665;SDS011;58531;59.050;17.416;2023-07-29T02:20:38;8.87;;;7.53;;
12665;SDS011;58531;59.050;17.416;2023-07-29T02:23:05;9.43;;;7.57;;
12665;SDS011;58531;59.050;17.416;2023-07-29T02:25:34;11.10;;;7.77;;
12665;SDS011;58531;59.050;17.416;2023-07-29T02:28:02;10.50;;;7.30;;
12665;SDS011;58531;59.050;17.416;2023-07-29T02:30:31;10.00;;;7.43;;
12665;SDS011;58531;59.050;17.416;2023-07-29T02:32:57;8.27;;;7.30;;
12665;SDS011;58531;59.050;17.416;2023-07-29T02:35:26;9.03;;;6.37;;
12665;SDS011;58531;59.050;17.416;2023-07-29T02:37:53;10.73;;;8.03;;
12665;SDS011;58531;59.050;17.416;2023-07-29T02:40:20;9.23;;;7.77;;
12665;SDS011;58531;59.050;17.416;2023-07-29T02:42:48;12.10;;;8.03;;
12665;SDS011;58531;59.050;17.416;2023-07-29T02:45:14;11.23;;;8.00;;
12665;SDS011;58531;59.050;17.416;2023-07-29T02:47:43;18.80;;;8.40;;
12665;SDS011;58531;59.050;17.416;2023-07-29T02:50:09;16.27;;;9.43;;
12665;SDS011;58531;59.050;17.416;2023-07-29T02:52:36;16.00;;;8.77;;
12665;SDS011;58531;59.050;17.416;2023-07-29T02:55:03;15.33;;;8.80;;
12665;SDS011;58531;59.050;17.416;2023-07-29T02:57:30;13.23;;;7.57;;
12665;SDS011;58531;59.050;17.416;2023-07-29T02:59:57;11.67;;;9.30;;
12665;SDS011;58531;59.050;17.416;2023-07-29T03:02:24;12.83;;;9.07;;
12665;SDS011;58531;59.050;17.416;2023-07-29T03:04:52;12.03;;;8.10;;
12665;SDS011;58531;59.050;17.416;2023-07-29T03:07:19;11.73;;;9.17;;
12665;SDS011;58531;59.050;17.416;2023-07-29T03:09:46;14.13;;;9.70;;
12665;SDS011;58531;59.050;17.416;2023-07-29T03:12:13;12.70;;;8.37;;
12665;SDS011;58531;59.050;17.416;2023-07-29T03:14:40;17.50;;;8.70;;
12665;SDS011;58531;59.050;17.416;2023-07-29T03:17:07;10.43;;;9.13;;
12665;SDS011;58531;59.050;17.416;2023-07-29T03:19:34;13.33;;;9.73;;
12665;SDS011;58531;59.050;17.416;2023-07-29T03:22:02;25.00;;;10.47;;
12665;SDS011;58531;59.050;17.416;2023-07-29T03:24:29;16.07;;;8.83;;
12665;SDS011;58531;59.050;17.416;2023-07-29T03:26:56;17.23;;;10.20;;
12665;SDS011;58531;59.050;17.416;2023-07-29T03:29:23;16.00;;;9.70;;
12665;SDS011;58531;59.050;17.416;2023-07-29T03:31:49;12.83;;;9.80;;
12665;SDS011;58531;59.050;17.416;2023-07-29T03:34:16;14.77;;;9.90;;
12665;SDS011;58531;59.050;17.416;2023-07-29T03:36:43;12.87;;;9.93;;
12665;SDS011;58531;59.050;17.416;2023-07-29T03:39:14;14.67;;;10.10;;
12665;SDS011;58531;59.050;17.416;2023-07-29T03:41:41;14.43;;;9.50;;
12665;SDS011;58531;59.050;17.416;2023-07-29T03:44:07;23.00;;;10.73;;
12665;SDS011;58531;59.050;17.416;2023-07-29T03:46:34;10.43;;;9.07;;
12665;SDS011;58531;59.050;17.416;2023-07-29T03:49:01;10.10;;;8.80;;
12665;SDS011;58531;59.050;17.416;2023-07-29T03:51:28;13.13;;;9.33;;
12665;SDS011;58531;59.050;17.416;2023-07-29T03:53:56;12.43;;;9.73;;
12665;SDS011;58531;59.050;17.416;2023-07-29T03:56:24;9.63;;;8.63;;
12665;SDS011;58531;59.050;17.416;2023-07-29T03:58:51;9.83;;;8.60;;
12665;SDS011;58531;59.050;17.416;2023-07-29T04:01:19;21.37;;;10.47;;
12665;SDS011;58531;59.050;17.416;2023-07-29T04:03:46;181.63;;;25.87;;
12665;SDS011;58531;59.050;17.416;2023-07-29T04:06:12;22.70;;;16.73;;
12665;SDS011;58531;59.050;17.416;2023-07-29T04:08:39;18.40;;;17.40;;
12665;SDS011;58531;59.050;17.416;2023-07-29T04:11:07;13.07;;;12.43;;
12665;SDS011;58531;59.050;17.416;2023-07-29T04:13:35;12.93;;;12.17;;
12665;SDS011;58531;59.050;17.416;2023-07-29T04:16:02;8.60;;;8.20;;
12665;SDS011;58531;59.050;17.416;2023-07-29T04:18:29;7.20;;;6.90;;
12665;SDS011;58531;59.050;17.416;2023-07-29T04:20:56;5.70;;;5.30;;
12665;SDS011;58531;59.050;17.416;2023-07-29T04:23:23;4.40;;;4.10;;
12665;SDS011;58531;59.050;17.416;2023-07-29T04:25:50;4.07;;;3.47;;
12665;SDS011;58531;59.050;17.416;2023-07-29T04:28:17;3.33;;;3.03;;
12665;SDS011;58531;59.050;17.416;2023-07-29T04:30:45;4.37;;;4.07;;
12665;SDS011;58531;59.050;17.416;2023-07-29T04:33:11;4.27;;;4.07;;
12665;SDS011;58531;59.050;17.416;2023-07-29T04:35:38;4.07;;;3.87;;
12665;SDS011;58531;59.050;17.416;2023-07-29T04:38:05;3.77;;;3.57;;
12665;SDS011;58531;59.050;17.416;2023-07-29T04:40:32;3.20;;;3.10;;
12665;SDS011;58531;59.050;17.416;2023-07-29T04:43:00;3.63;;;3.43;;
12665;SDS011;58531;59.050;17.416;2023-07-29T04:45:27;3.33;;;3.10;;
12665;SDS011;58531;59.050;17.416;2023-07-29T04:47:56;3.33;;;3.13;;
12665;SDS011;58531;59.050;17.416;2023-07-29T04:50:23;3.30;;;3.10;;
12665;SDS011;58531;59.050;17.416;2023-07-29T04:52:50;2.80;;;2.70;;
12665;SDS011;58531;59.050;17.416;2023-07-29T04:55:18;2.87;;;2.67;;
12665;SDS011;58531;59.050;17.416;2023-07-29T04:57:45;3.03;;;2.83;;
12665;SDS011;58531;59.050;17.416;2023-07-29T05:00:12;3.00;;;2.77;;
12665;SDS011;58531;59.050;17.416;2023-07-29T05:02:39;3.10;;;2.90;;
12665;SDS011;58531;59.050;17.416;2023-07-29T05:05:07;3.10;;;2.90;;
12665;SDS011;58531;59.050;17.416;2023-07-29T05:07:34;2.97;;;2.83;;
12665;SDS011;58531;59.050;17.416;2023-07-29T05:10:01;3.17;;;3.07;;
12665;SDS011;58531;59.050;17.416;2023-07-29T05:12:28;3.10;;;2.90;;
12665;SDS011;58531;59.050;17.416;2023-07-29T05:14:55;3.90;;;3.60;;
12665;SDS011;58531;59.050;17.416;2023-07-29T05:17:21;3.67;;;3.47;;
12665;SDS011;58531;59.050;17.416;2023-07-29T05:19:48;3.60;;;3.40;;
12665;SDS011;58531;59.050;17.416;2023-07-29T05:22:16;5.23;;;3.90;;
12665;SDS011;58531;59.050;17.416;2023-07-29T05:24:43;4.33;;;4.03;;
12665;SDS011;58531;59.050;17.416;2023-07-29T05:27:10;3.77;;;3.43;;
12665;SDS011;58531;59.050;17.416;2023-07-29T05:29:37;4.50;;;3.83;;
12665;SDS011;58531;59.050;17.416;2023-07-29T05:32:04;4.13;;;3.93;;
12665;SDS011;58531;59.050;17.416;2023-07-29T05:34:31;4.10;;;3.80;;
12665;SDS011;58531;59.050;17.416;2023-07-29T05:36:58;4.27;;;3.97;;
12665;SDS011;58531;59.050;17.416;2023-07-29T05:39:26;3.70;;;3.50;;
12665;SDS011;58531;59.050;17.416;2023-07-29T05:41:53;3.93;;;3.73;;
12665;SDS011;58531;59.050;17.416;2023-07-29T05:44:20;3.53;;;3.23;;
12665;SDS011;58531;59.050;17.416;2023-07-29T05:46:46;3.43;;;3.23;;
12665;SDS011;58531;59.050;17.416;2023-07-29T05:49:13;3.90;;;3.70;;
12665;SDS011;58531;59.050;17.416;2023-07-29T05:51:40;3.47;;;3.20;;
12665;SDS011;58531;59.050;17.416;2023-07-29T05:54:07;3.47;;;3.27;;
12665;SDS011;58531;59.050;17.416;2023-07-29T05:56:35;2.93;;;2.73;;
12665;SDS011;58531;59.050;17.416;2023-07-29T05:59:02;3.70;;;3.50;;
12665;SDS011;58531;59.050;17.416;2023-07-29T06:01:29;3.73;;;3.07;;
12665;SDS011;58531;59.050;17.416;2023-07-29T06:03:55;3.00;;;2.90;;
12665;SDS011;58531;59.050;17.416;2023-07-29T06:06:22;3.10;;;2.90;;
12665;SDS011;58531;59.050;17.416;2023-07-29T06:08:49;3.73;;;3.53;;
12665;SDS011;58531;59.050;17.416;2023-07-29T06:11:16;3.57;;;3.37;;
12665;SDS011;58531;59.050;17.416;2023-07-29T06:13:45;3.50;;;3.27;;
12665;SDS011;58531;59.050;17.416;2023-07-29T06:16:13;3.73;;;3.53;;
12665;SDS011;58531;59.050;17.416;2023-07-29T06:18:40;3.27;;;3.17;;
12665;SDS011;58531;59.050;17.416;2023-07-29T06:21:07;3.90;;;3.70;;
12665;SDS011;58531;59.050;17.416;2023-07-29T06:23:36;3.50;;;3.30;;
12665;SDS011;58531;59.050;17.416;2023-07-29T06:26:03;3.50;;;3.30;;
12665;SDS011;58531;59.050;17.416;2023-07-29T06:28:31;3.37;;;3.17;;
12665;SDS011;58531;59.050;17.416;2023-07-29T06:31:00;3.03;;;2.77;;
12665;SDS011;58531;59.050;17.416;2023-07-29T06:33:27;2.83;;;2.63;;
12665;SDS011;58531;59.050;17.416;2023-07-29T06:35:54;2.70;;;2.60;;
12665;SDS011;58531;59.050;17.416;2023-07-29T06:38:21;3.50;;;3.30;;
12665;SDS011;58531;59.050;17.416;2023-07-29T06:40:48;3.73;;;3.37;;
12665;SDS011;58531;59.050;17.416;2023-07-29T06:43:14;2.93;;;2.83;;
12665;SDS011;58531;59.050;17.416;2023-07-29T06:45:41;3.43;;;3.13;;
12665;SDS011;58531;59.050;17.416;2023-07-29T06:48:10;3.20;;;3.00;;
12665;SDS011;58531;59.050;17.416;2023-07-29T06:50:36;2.70;;;2.60;;
12665;SDS011;58531;59.050;17.416;2023-07-29T06:53:03;2.63;;;2.53;;
12665;SDS011;58531;59.050;17.416;2023-07-29T06:55:30;2.87;;;2.67;;
12665;SDS011;58531;59.050;17.416;2023-07-29T06:57:57;2.97;;;2.73;;
12665;SDS011;58531;59.050;17.416;2023-07-29T07:00:24;2.87;;;2.67;;
12665;SDS011;58531;59.050;17.416;2023-07-29T07:02:50;2.38;;;2.22;;
12665;SDS011;58531;59.050;17.416;2023-07-29T07:05:19;2.67;;;2.53;;
12665;SDS011;58531;59.050;17.416;2023-07-29T07:07:45;2.70;;;2.50;;
12665;SDS011;58531;59.050;17.416;2023-07-29T07:10:13;2.70;;;2.60;;
12665;SDS011;58531;59.050;17.416;2023-07-29T07:12:40;2.67;;;2.47;;
12665;SDS011;58531;59.050;17.416;2023-07-29T07:15:07;2.70;;;2.50;;
12665;SDS011;58531;59.050;17.416;2023-07-29T07:17:34;2.80;;;2.60;;
12665;SDS011;58531;59.050;17.416;2023-07-29T07:20:01;2.90;;;2.70;;
12665;SDS011;58531;59.050;17.416;2023-07-29T07:22:30;2.57;;;2.43;;
12665;SDS011;58531;59.050;17.416;2023-07-29T07:24:57;3.13;;;2.90;;
12665;SDS011;58531;59.050;17.416;2023-07-29T07:27:24;2.87;;;2.70;;
12665;SDS011;58531;59.050;17.416;2023-07-29T07:29:50;2.90;;;2.30;;
12665;SDS011;58531;59.050;17.416;2023-07-29T07:32:17;3.10;;;2.87;;
12665;SDS011;58531;59.050;17.416;2023-07-29T07:34:44;3.23;;;2.60;;
12665;SDS011;58531;59.050;17.416;2023-07-29T07:37:11;2.60;;;2.50;;
12665;SDS011;58531;59.050;17.416;2023-07-29T07:39:39;2.67;;;2.47;;
12665;SDS011;58531;59.050;17.416;2023-07-29T07:42:06;2.77;;;2.57;;
12665;SDS011;58531;59.050;17.416;2023-07-29T07:44:33;3.00;;;2.80;;
12665;SDS011;58531;59.050;17.416;2023-07-29T07:47:00;3.13;;;2.87;;
12665;SDS011;58531;59.050;17.416;2023-07-29T07:49:26;3.10;;;2.90;;
12665;SDS011;58531;59.050;17.416;2023-07-29T07:51:53;3.47;;;3.27;;
12665;SDS011;58531;59.050;17.416;2023-07-29T07:54:20;3.10;;;2.90;;
12665;SDS011;58531;59.050;17.416;2023-07-29T07:56:48;3.20;;;3.00;;
12665;SDS011;58531;59.050;17.416;2023-07-29T07:59:15;3.33;;;3.13;;
12665;SDS011;58531;59.050;17.416;2023-07-29T08:01:42;3.40;;;3.20;;
12665;SDS011;58531;59.050;17.416;2023-07-29T08:04:08;3.27;;;3.17;;
12665;SDS011;58531;59.050;17.416;2023-07-29T08:06:35;3.53;;;3.33;;
12665;SDS011;58531;59.050;17.416;2023-07-29T08:09:03;5.00;;;4.43;;
12665;SDS011;58531;59.050;17.416;2023-07-29T08:11:30;5.87;;;5.50;;
12665;SDS011;58531;59.050;17.416;2023-07-29T08:13:58;8.27;;;7.90;;
12665;SDS011;58531;59.050;17.416;2023-07-29T08:16:25;8.53;;;8.13;;
12665;SDS011;58531;59.050;17.416;2023-07-29T08:18:52;7.20;;;6.80;;
12665;SDS011;58531;59.050;17.416;2023-07-29T08:21:19;5.07;;;4.77;;
12665;SDS011;58531;59.050;17.416;2023-07-29T08:23:45;4.37;;;4.17;;
12665;SDS011;58531;59.050;17.416;2023-07-29T08:26:12;5.80;;;5.30;;
12665;SDS011;58531;59.050;17.416;2023-07-29T08:28:39;9.63;;;9.23;;
12665;SDS011;58531;59.050;17.416;2023-07-29T08:31:08;8.50;;;7.90;;
12665;SDS011;58531;59.050;17.416;2023-07-29T08:33:34;9.73;;;9.20;;
12665;SDS011;58531;59.050;17.416;2023-07-29T08:36:01;7.77;;;7.07;;
12665;SDS011;58531;59.050;17.416;2023-07-29T08:38:29;9.40;;;8.97;;
12665;SDS011;58531;59.050;17.416;2023-07-29T08:40:58;8.63;;;8.23;;
12665;SDS011;58531;59.050;17.416;2023-07-29T08:43:31;9.43;;;8.83;;
12665;SDS011;58531;59.050;17.416;2023-07-29T08:45:59;9.83;;;9.33;;
12665;SDS011;58531;59.050;17.416;2023-07-29T08:48:31;5.33;;;4.83;;
12665;SDS011;58531;59.050;17.416;2023-07-29T08:51:03;5.90;;;5.60;;
12665;SDS011;58531;59.050;17.416;2023-07-29T08:53:31;5.07;;;4.67;;
12665;SDS011;58531;59.050;17.416;2023-07-29T08:55:59;5.13;;;4.87;;
12665;SDS011;58531;59.050;17.416;2023-07-29T08:58:26;6.17;;;5.77;;
12665;SDS011;58531;59.050;17.416;2023-07-29T09:00:53;5.63;;;5.33;;
12665;SDS011;58531;59.050;17.416;2023-07-29T09:03:20;5.07;;;4.77;;
12665;SDS011;58531;59.050;17.416;2023-07-29T09:05:49;4.80;;;4.50;;
12665;SDS011;58531;59.050;17.416;2023-07-29T09:08:17;4.87;;;4.47;;
12665;SDS011;58531;59.050;17.416;2023-07-29T09:10:44;4.70;;;4.40;;
12665;SDS011;58531;59.050;17.416;2023-07-29T09:13:11;4.43;;;4.13;;
12665;SDS011;58531;59.050;17.416;2023-07-29T09:15:38;4.03;;;3.83;;
12665;SDS011;58531;59.050;17.416;2023-07-29T09:18:11;5.10;;;4.70;;
12665;SDS011;58531;59.050;17.416;2023-07-29T09:20:40;5.10;;;4.90;;
12665;SDS011;58531;59.050;17.416;2023-07-29T09:23:09;4.67;;;4.27;;
12665;SDS011;58531;59.050;17.416;2023-07-29T09:25:36;5.73;;;5.43;;
12665;SDS011;58531;59.050;17.416;2023-07-29T09:28:07;5.13;;;4.93;;
12665;SDS011;58531;59.050;17.416;2023-07-29T09:30:35;6.00;;;5.80;;
12665;SDS011;58531;59.050;17.416;2023-07-29T09:33:02;7.80;;;7.40;;
12665;SDS011;58531;59.050;17.416;2023-07-29T09:35:30;5.37;;;5.07;;
12665;SDS011;58531;59.050;17.416;2023-07-29T09:37:59;7.03;;;6.73;;
12665;SDS011;58531;59.050;17.416;2023-07-29T09:40:27;7.17;;;6.87;;
12665;SDS011;58531;59.050;17.416;2023-07-29T09:42:54;7.17;;;6.83;;
12665;SDS011;58531;59.050;17.416;2023-07-29T09:45:22;7.83;;;7.53;;
12665;SDS011;58531;59.050;17.416;2023-07-29T09:47:50;6.97;;;6.67;;
12665;SDS011;58531;59.050;17.416;2023-07-29T09:50:18;7.23;;;6.83;;
12665;SDS011;58531;59.050;17.416;2023-07-29T09:52:45;7.30;;;7.00;;
12665;SDS011;58531;59.050;17.416;2023-07-29T09:55:13;5.73;;;5.43;;
12665;SDS011;58531;59.050;17.416;2023-07-29T09:57:45;6.60;;;6.40;;
12665;SDS011;58531;59.050;17.416;2023-07-29T10:00:12;6.13;;;5.77;;
12665;SDS011;58531;59.050;17.416;2023-07-29T10:02:40;7.90;;;7.43;;
12665;SDS011;58531;59.050;17.416;2023-07-29T10:05:08;6.93;;;6.63;;
12665;SDS011;58531;59.050;17.416;2023-07-29T10:07:36;6.37;;;6.07;;
12665;SDS011;58531;59.050;17.416;2023-07-29T10:10:04;5.87;;;5.57;;
12665;SDS011;58531;59.050;17.416;2023-07-29T10:12:33;6.93;;;6.37;;
12665;SDS011;58531;59.050;17.416;2023-07-29T10:15:02;6.37;;;6.17;;
12665;SDS011;58531;59.050;17.416;2023-07-29T10:17:30;7.43;;;7.03;;
12665;SDS011;58531;59.050;17.416;2023-07-29T10:19:59;7.57;;;7.17;;
12665;SDS011;58531;59.050;17.416;2023-07-29T10:22:27;6.80;;;6.50;;
12665;SDS011;58531;59.050;17.416;2023-07-29T10:25:01;6.87;;;6.57;;
12665;SDS011;58531;59.050;17.416;2023-07-29T10:27:31;8.03;;;7.73;;
12665;SDS011;58531;59.050;17.416;2023-07-29T10:30:06;6.30;;;6.10;;
12665;SDS011;58531;59.050;17.416;2023-07-29T10:32:34;6.67;;;6.47;;
12665;SDS011;58531;59.050;17.416;2023-07-29T10:35:02;7.30;;;7.00;;
12665;SDS011;58531;59.050;17.416;2023-07-29T10:37:29;5.87;;;5.47;;
12665;SDS011;58531;59.050;17.416;2023-07-29T10:39:56;6.63;;;6.33;;
12665;SDS011;58531;59.050;17.416;2023-07-29T10:42:22;7.57;;;7.17;;
12665;SDS011;58531;59.050;17.416;2023-07-29T10:44:50;7.53;;;7.23;;
12665;SDS011;58531;59.050;17.416;2023-07-29T10:47:19;5.77;;;5.50;;
12665;SDS011;58531;59.050;17.416;2023-07-29T10:49:48;6.83;;;6.43;;
12665;SDS011;58531;59.050;17.416;2023-07-29T10:52:18;6.80;;;6.40;;
12665;SDS011;58531;59.050;17.416;2023-07-29T10:54:55;7.07;;;6.77;;
12665;SDS011;58531;59.050;17.416;2023-07-29T10:57:30;6.60;;;6.27;;
12665;SDS011;58531;59.050;17.416;2023-07-29T10:59:57;6.73;;;6.43;;
12665;SDS011;58531;59.050;17.416;2023-07-29T11:02:29;5.10;;;4.80;;
12665;SDS011;58531;59.050;17.416;2023-07-29T11:04:57;5.67;;;5.47;;
12665;SDS011;58531;59.050;17.416;2023-07-29T11:07:25;6.43;;;6.20;;
12665;SDS011;58531;59.050;17.416;2023-07-29T11:09:57;6.57;;;6.27;;
12665;SDS011;58531;59.050;17.416;2023-07-29T11:12:42;6.87;;;6.47;;
12665;SDS011;58531;59.050;17.416;2023-07-29T11:15:14;5.30;;;5.10;;
12665;SDS011;58531;59.050;17.416;2023-07-29T11:17:44;5.60;;;5.40;;
12665;SDS011;58531;59.050;17.416;2023-07-29T11:20:13;5.57;;;5.30;;
12665;SDS011;58531;59.050;17.416;2023-07-29T11:22:41;5.27;;;5.00;;
12665;SDS011;58531;59.050;17.416;2023-07-29T11:25:09;5.37;;;5.17;;
12665;SDS011;58531;59.050;17.416;2023-07-29T11:27:37;4.90;;;4.70;;
12665;SDS011;58531;59.050;17.416;2023-07-29T11:30:05;5.70;;;5.50;;
12665;SDS011;58531;59.050;17.416;2023-07-29T11:32:33;6.07;;;5.77;;
12665;SDS011;58531;59.050;17.416;2023-07-29T11:35:03;6.23;;;5.93;;
12665;SDS011;58531;59.050;17.416;2023-07-29T11:37:32;5.27;;;5.07;;
12665;SDS011;58531;59.050;17.416;2023-07-29T11:39:59;4.20;;;4.00;;
12665;SDS011;58531;59.050;17.416;2023-07-29T11:42:27;6.53;;;6.23;;
12665;SDS011;58531;59.050;17.416;2023-07-29T11:44:55;4.60;;;4.40;;
12665;SDS011;58531;59.050;17.416;2023-07-29T11:47:23;6.40;;;6.00;;
12665;SDS011;58531;59.050;17.416;2023-07-29T11:49:51;4.47;;;4.03;;
12665;SDS011;58531;59.050;17.416;2023-07-29T11:52:19;4.67;;;4.37;;
12665;SDS011;58531;59.050;17.416;2023-07-29T11:54:47;5.17;;;4.97;;
12665;SDS011;58531;59.050;17.416;2023-07-29T11:57:15;5.10;;;4.80;;
12665;SDS011;58531;59.050;17.416;2023-07-29T11:59:43;5.13;;;4.83;;
12665;SDS011;58531;59.050;17.416;2023-07-29T12:02:10;6.30;;;6.00;;
12665;SDS011;58531;59.050;17.416;2023-07-29T12:04:39;6.33;;;6.03;;
12665;SDS011;58531;59.050;17.416;2023-07-29T12:07:07;7.97;;;7.53;;
12665;SDS011;58531;59.050;17.416;2023-07-29T12:09:36;3.87;;;3.70;;
12665;SDS011;58531;59.050;17.416;2023-07-29T12:12:04;5.10;;;4.80;;
12665;SDS011;58531;59.050;17.416;2023-07-29T12:14:32;7.53;;;7.13;;
12665;SDS011;58531;59.050;17.416;2023-07-29T12:16:59;5.73;;;5.33;;
12665;SDS011;58531;59.050;17.416;2023-07-29T12:19:31;5.67;;;5.47;;
12665;SDS011;58531;59.050;17.416;2023-07-29T12:21:58;5.90;;;5.60;;
12665;SDS011;58531;59.050;17.416;2023-07-29T12:24:25;5.93;;;5.53;;
12665;SDS011;58531;59.050;17.416;2023-07-29T12:26:53;5.33;;;5.03;;
12665;SDS011;58531;59.050;17.416;2023-07-29T12:29:21;5.47;;;5.20;;
12665;SDS011;58531;59.050;17.416;2023-07-29T12:31:48;4.13;;;3.93;;
12665;SDS011;58531;59.050;17.416;2023-07-29T12:34:24;4.93;;;4.63;;
12665;SDS011;58531;59.050;17.416;2023-07-29T12:36:52;5.90;;;5.60;;
12665;SDS011;58531;59.050;17.416;2023-07-29T12:39:19;5.63;;;5.43;;
12665;SDS011;58531;59.050;17.416;2023-07-29T12:41:47;5.47;;;5.17;;
12665;SDS011;58531;59.050;17.416;2023-07-29T12:44:16;5.33;;;5.03;;
12665;SDS011;58531;59.050;17.416;2023-07-29T12:46:44;4.33;;;4.13;;
12665;SDS011;58531;59.050;17.416;2023-07-29T12:49:11;4.97;;;4.77;;
12665;SDS011;58531;59.050;17.416;2023-07-29T12:51:38;5.23;;;4.87;;
12665;SDS011;58531;59.050;17.416;2023-07-29T12:54:05;6.07;;;5.67;;
12665;SDS011;58531;59.050;17.416;2023-07-29T12:56:32;4.40;;;4.20;;
12665;SDS011;58531;59.050;17.416;2023-07-29T12:58:59;4.20;;;4.00;;
12665;SDS011;58531;59.050;17.416;2023-07-29T13:01:28;5.70;;;5.40;;
12665;SDS011;58531;59.050;17.416;2023-07-29T13:03:55;5.47;;;5.27;;
12665;SDS011;58531;59.050;17.416;2023-07-29T13:06:22;5.37;;;5.17;;
12665;SDS011;58531;59.050;17.416;2023-07-29T13:08:49;6.70;;;6.40;;
12665;SDS011;58531;59.050;17.416;2023-07-29T13:11:16;5.10;;;4.77;;
12665;SDS011;58531;59.050;17.416;2023-07-29T13:13:43;6.50;;;6.20;;
12665;SDS011;58531;59.050;17.416;2023-07-29T13:16:10;6.57;;;6.27;;
12665;SDS011;58531;59.050;17.416;2023-07-29T13:18:39;6.43;;;6.13;;
12665;SDS011;58531;59.050;17.416;2023-07-29T13:21:06;6.23;;;5.93;;
12665;SDS011;58531;59.050;17.416;2023-07-29T13:23:32;4.33;;;4.13;;
12665;SDS011;58531;59.050;17.416;2023-07-29T13:25:59;4.73;;;4.50;;
12665;SDS011;58531;59.050;17.416;2023-07-29T13:28:26;5.63;;;5.33;;
12665;SDS011;58531;59.050;17.416;2023-07-29T13:30:53;5.27;;;5.07;;
12665;SDS011;58531;59.050;17.416;2023-07-29T13:33:20;6.73;;;6.43;;
12665;SDS011;58531;59.050;17.416;2023-07-29T13:35:48;5.83;;;5.53;;
12665;SDS011;58531;59.050;17.416;2023-07-29T13:38:15;6.47;;;6.17;;
12665;SDS011;58531;59.050;17.416;2023-07-29T13:40:42;5.57;;;5.30;;
12665;SDS011;58531;59.050;17.416;2023-07-29T13:43:09;6.27;;;5.87;;
12665;SDS011;58531;59.050;17.416;2023-07-29T13:45:36;8.27;;;7.77;;
12665;SDS011;58531;59.050;17.416;2023-07-29T13:48:03;8.10;;;7.70;;
12665;SDS011;58531;59.050;17.416;2023-07-29T13:50:30;7.23;;;6.93;;
12665;SDS011;58531;59.050;17.416;2023-07-29T13:52:58;7.57;;;6.90;;
12665;SDS011;58531;59.050;17.416;2023-07-29T13:55:25;7.60;;;6.93;;
12665;SDS011;58531;59.050;17.416;2023-07-29T13:57:52;6.40;;;6.10;;
12665;SDS011;58531;59.050;17.416;2023-07-29T14:00:19;6.50;;;6.20;;
12665;SDS011;58531;59.050;17.416;2023-07-29T14:02:46;6.10;;;5.53;;
12665;SDS011;58531;59.050;17.416;2023-07-29T14:05:13;5.13;;;4.80;;
12665;SDS011;58531;59.050;17.416;2023-07-29T14:07:40;4.63;;;4.33;;
12665;SDS011;58531;59.050;17.416;2023-07-29T14:10:08;7.13;;;6.70;;
12665;SDS011;58531;59.050;17.416;2023-07-29T14:12:35;7.13;;;6.77;;
12665;SDS011;58531;59.050;17.416;2023-07-29T14:15:03;7.03;;;6.53;;
12665;SDS011;58531;59.050;17.416;2023-07-29T14:17:31;6.13;;;5.83;;
12665;SDS011;58531;59.050;17.416;2023-07-29T14:19:58;7.47;;;7.13;;
12665;SDS011;58531;59.050;17.416;2023-07-29T14:22:25;6.20;;;5.90;;
12665;SDS011;58531;59.050;17.416;2023-07-29T14:24:51;5.83;;;5.53;;
12665;SDS011;58531;59.050;17.416;2023-07-29T14:27:20;5.90;;;5.60;;
12665;SDS011;58531;59.050;17.416;2023-07-29T14:29:46;6.13;;;5.83;;
12665;SDS011;58531;59.050;17.416;2023-07-29T14:32:13;6.57;;;6.27;;
12665;SDS011;58531;59.050;17.416;2023-07-29T14:34:40;6.67;;;6.27;;
12665;SDS011;58531;59.050;17.416;2023-07-29T14:37:07;5.10;;;4.90;;